Sea Mule — WDB7537 — position and weather

sailwx.info

Track history (hours):
 
Tides and Currents Weather Stations Pressure Air Temp Water Temp Dewpoint Dewpoint Depression Visibility Wind Speed Wind Dir Waves Ship Positions

Sea Mule

Owner: GARBER BROTHERS INC, MORGAN CITY, LA. More information available from US FCC via Universal Licensing System and Coast Guard Vessel Documentation Center.

Last reported at 2017-Oct-20 01:01 UTC. Time now 2017-Oct-20 01:28 UTC.
Position N 29°37' W 090°42'.

Length 15 m.

Type: Tug. MMSI: 366943760.

Date/timePositionNaut miles runAvg speedWind from/ knotsBaromVisibWave heightAir tempDewpointWater temp
2017-Oct-20 01:01N 29°37' W 090°42'3 6.9
2017-Oct-20 00:30N 29°35' W 090°39'3 5.3
2017-Oct-20 00:00N 29°35' W 090°36'4 7.1
2017-Oct-19 23:30N 29°34' W 090°32'  
2017-Oct-15 11:04N 29°33' W 090°28'1 6.5
2017-Oct-15 10:58N 29°34' W 090°29'3 6.4
2017-Oct-15 10:30N 29°34' W 090°32'3 6.2
2017-Oct-15 10:00N 29°35' W 090°36'1 2.9
2017-Oct-15 09:30N 29°35' W 090°37'1 2.0
2017-Oct-15 09:00N 29°35' W 090°38'3 5.7
2017-Oct-15 08:30N 29°37' W 090°41'2 3.7
2017-Oct-15 08:00N 29°35' W 090°43'2 4.7
2017-Oct-15 07:30N 29°34' W 090°45'2 4.9
2017-Oct-15 07:00N 29°32' W 090°47'67 4.7
2017-Oct-14 16:34N 29°49' W 092°02'0 0.4
2017-Oct-14 16:16N 29°49' W 092°02'2 6.1
2017-Oct-14 16:00N 29°48' W 092°04'3 6.0
2017-Oct-14 15:30N 29°47' W 092°07'3 5.7
2017-Oct-14 15:00N 29°47' W 092°10'2 4.7
2017-Oct-14 14:30N 29°47' W 092°13'3 5.5
2017-Oct-14 14:00N 29°48' W 092°16'3 5.4
2017-Oct-14 13:30N 29°50' W 092°18'30 5.0
2017-Oct-14 07:33N 29°57' W 092°52'2 5.9
2017-Oct-14 07:15N 29°57' W 092°54'1 5.9
2017-Oct-14 07:00N 29°56' W 092°55'3 5.7
2017-Oct-14 06:27N 29°56' W 092°59'3 5.9
2017-Oct-14 05:55N 29°56' W 093°02'2 5.1
2017-Oct-14 05:30N 29°56' W 093°05'3 5.3
2017-Oct-14 04:57N 29°56' W 093°08'2 3.8
2017-Oct-14 04:30N 29°57' W 093°10'2 3.9
2017-Oct-14 04:00N 29°58' W 093°12'2 4.5
2017-Oct-14 03:30N 29°60' W 093°13'2 4.0
2017-Oct-14 03:00N 30°02' W 093°14'2 3.3
2017-Oct-14 02:30N 30°03' W 093°16'2 3.8
2017-Oct-14 02:00N 30°05' W 093°17'2 3.0
2017-Oct-14 01:30N 30°06' W 093°18'1 1.7
2017-Oct-14 01:00N 30°06' W 093°19'0 0.0
2017-Oct-14 00:30N 30°06' W 093°19'0 0.0
2017-Oct-14 00:00N 30°06' W 093°19'0 0.4
2017-Oct-13 23:30N 30°06' W 093°19'3 5.8
2017-Oct-13 23:00N 30°04' W 093°21'3 5.9
2017-Oct-13 22:30N 30°04' W 093°24'3 6.3
2017-Oct-13 22:00N 30°04' W 093°28'3 6.3
2017-Oct-13 21:30N 30°04' W 093°32'78 4.0
2017-Oct-13 02:18N 29°31' W 094°53'2 5.8
2017-Oct-13 02:00N 29°32' W 094°54'3 6.1
2017-Oct-13 01:30N 29°35' W 094°56'5 5.9
2017-Oct-13 00:44N 29°39' W 094°58'2 7.0
2017-Oct-13 00:29N 29°41' W 094°59'3 6.1
2017-Oct-12 23:58N 29°43' W 095°01'6 3.8
2017-Oct-12 22:23N 29°44' W 095°08'2 4.7
2017-Oct-12 21:58N 29°45' W 095°10'3 4.3
2017-Oct-12 21:17N 29°43' W 095°13'2 4.4
2017-Oct-12 20:54N 29°44' W 095°15'1 1.8
2017-Oct-12 20:24N 29°44' W 095°16'0 0.2
2017-Oct-12 20:00N 29°44' W 095°16'0 0.1
2017-Oct-12 19:26N 29°44' W 095°16'0 0.5
2017-Oct-12 19:00N 29°43' W 095°16'0 0.0
2017-Oct-12 18:30N 29°43' W 095°16'0 0.0
2017-Oct-12 17:56N 29°43' W 095°16'7 5.0
2017-Oct-12 16:35N 29°44' W 095°09'7 5.8
2017-Oct-12 15:27N 29°43' W 095°01'3 7.3
2017-Oct-12 15:00N 29°41' W 094°59'4 8.4
2017-Oct-12 14:30N 29°37' W 094°57'4 8.5
2017-Oct-12 14:00N 29°33' W 094°54'69 6.5
2017-Oct-12 03:19N 30°03' W 093°43'3 8.3
2017-Oct-12 03:00N 30°04' W 093°40'4 7.4
2017-Oct-12 02:29N 30°04' W 093°36'4 7.6
2017-Oct-12 02:00N 30°04' W 093°31'4 7.6
2017-Oct-12 01:30N 30°04' W 093°27'4 7.5
2017-Oct-12 01:00N 30°04' W 093°23'3 5.4
2017-Oct-12 00:30N 30°05' W 093°20'3 5.1
2017-Oct-12 00:00N 30°05' W 093°17'1 1.3
2017-Oct-11 23:30N 30°04' W 093°16'0 0.0
2017-Oct-11 23:00N 30°04' W 093°16'0 0.0
2017-Oct-11 22:30N 30°04' W 093°16'1 1.8
2017-Oct-11 22:00N 30°04' W 093°16'3 6.5
2017-Oct-11 21:30N 30°01' W 093°14'4 7.2
2017-Oct-11 21:00N 29°58' W 093°11'126 6.0
2017-Oct-11 00:00N 29°32' W 090°49'3 6.4
2017-Oct-10 23:30N 29°33' W 090°45'2 4.8
2017-Oct-10 23:00N 29°34' W 090°43'0 0.2
2017-Oct-10 22:30N 29°34' W 090°43'2 3.3
2017-Oct-10 22:00N 29°33' W 090°41'  
Track history (hours):
 
Tides and Currents Weather Stations Pressure Air Temp Water Temp Dewpoint Dewpoint Depression Visibility Wind Speed Wind Dir Waves Ship Positions

Sea Mule

Owner: GARBER BROTHERS INC, MORGAN CITY, LA. More information available from US FCC via Universal Licensing System and Coast Guard Vessel Documentation Center.

Last reported at 2017-Oct-20 01:01 UTC. Time now 2017-Oct-20 01:28 UTC.
Position N 29°37' W 090°42'.

Length 15 m.

Type: Tug. MMSI: 366943760.

Date/timePositionNaut miles runAvg speedWind from/ knotsBaromVisibWave heightAir tempDewpointWater temp
2017-Oct-20 01:01N 29°37' W 090°42'3 6.9
2017-Oct-20 00:30N 29°35' W 090°39'3 5.3
2017-Oct-20 00:00N 29°35' W 090°36'4 7.1
2017-Oct-19 23:30N 29°34' W 090°32'  
2017-Oct-15 11:04N 29°33' W 090°28'1 6.5
2017-Oct-15 10:58N 29°34' W 090°29'3 6.4
2017-Oct-15 10:30N 29°34' W 090°32'3 6.2
2017-Oct-15 10:00N 29°35' W 090°36'1 2.9
2017-Oct-15 09:30N 29°35' W 090°37'1 2.0
2017-Oct-15 09:00N 29°35' W 090°38'3 5.7
2017-Oct-15 08:30N 29°37' W 090°41'2 3.7
2017-Oct-15 08:00N 29°35' W 090°43'2 4.7
2017-Oct-15 07:30N 29°34' W 090°45'2 4.9
2017-Oct-15 07:00N 29°32' W 090°47'67 4.7
2017-Oct-14 16:34N 29°49' W 092°02'0 0.4
2017-Oct-14 16:16N 29°49' W 092°02'2 6.1
2017-Oct-14 16:00N 29°48' W 092°04'3 6.0
2017-Oct-14 15:30N 29°47' W 092°07'3 5.7
2017-Oct-14 15:00N 29°47' W 092°10'2 4.7
2017-Oct-14 14:30N 29°47' W 092°13'3 5.5
2017-Oct-14 14:00N 29°48' W 092°16'3 5.4
2017-Oct-14 13:30N 29°50' W 092°18'30 5.0
2017-Oct-14 07:33N 29°57' W 092°52'2 5.9
2017-Oct-14 07:15N 29°57' W 092°54'1 5.9
2017-Oct-14 07:00N 29°56' W 092°55'3 5.7
2017-Oct-14 06:27N 29°56' W 092°59'3 5.9
2017-Oct-14 05:55N 29°56' W 093°02'2 5.1
2017-Oct-14 05:30N 29°56' W 093°05'3 5.3
2017-Oct-14 04:57N 29°56' W 093°08'2 3.8
2017-Oct-14 04:30N 29°57' W 093°10'2 3.9
2017-Oct-14 04:00N 29°58' W 093°12'2 4.5
2017-Oct-14 03:30N 29°60' W 093°13'2 4.0
2017-Oct-14 03:00N 30°02' W 093°14'2 3.3
2017-Oct-14 02:30N 30°03' W 093°16'2 3.8
2017-Oct-14 02:00N 30°05' W 093°17'2 3.0
2017-Oct-14 01:30N 30°06' W 093°18'1 1.7
2017-Oct-14 01:00N 30°06' W 093°19'0 0.0
2017-Oct-14 00:30N 30°06' W 093°19'0 0.0
2017-Oct-14 00:00N 30°06' W 093°19'0 0.4
2017-Oct-13 23:30N 30°06' W 093°19'3 5.8
2017-Oct-13 23:00N 30°04' W 093°21'3 5.9
2017-Oct-13 22:30N 30°04' W 093°24'3 6.3
2017-Oct-13 22:00N 30°04' W 093°28'3 6.3
2017-Oct-13 21:30N 30°04' W 093°32'78 4.0
2017-Oct-13 02:18N 29°31' W 094°53'2 5.8
2017-Oct-13 02:00N 29°32' W 094°54'3 6.1
2017-Oct-13 01:30N 29°35' W 094°56'5 5.9
2017-Oct-13 00:44N 29°39' W 094°58'2 7.0
2017-Oct-13 00:29N 29°41' W 094°59'3 6.1
2017-Oct-12 23:58N 29°43' W 095°01'6 3.8
2017-Oct-12 22:23N 29°44' W 095°08'2 4.7
2017-Oct-12 21:58N 29°45' W 095°10'3 4.3
2017-Oct-12 21:17N 29°43' W 095°13'2 4.4
2017-Oct-12 20:54N 29°44' W 095°15'1 1.8
2017-Oct-12 20:24N 29°44' W 095°16'0 0.2
2017-Oct-12 20:00N 29°44' W 095°16'0 0.1
2017-Oct-12 19:26N 29°44' W 095°16'0 0.5
2017-Oct-12 19:00N 29°43' W 095°16'0 0.0
2017-Oct-12 18:30N 29°43' W 095°16'0 0.0
2017-Oct-12 17:56N 29°43' W 095°16'7 5.0
2017-Oct-12 16:35N 29°44' W 095°09'7 5.8
2017-Oct-12 15:27N 29°43' W 095°01'3 7.3
2017-Oct-12 15:00N 29°41' W 094°59'4 8.4
2017-Oct-12 14:30N 29°37' W 094°57'4 8.5
2017-Oct-12 14:00N 29°33' W 094°54'69 6.5
2017-Oct-12 03:19N 30°03' W 093°43'3 8.3
2017-Oct-12 03:00N 30°04' W 093°40'4 7.4
2017-Oct-12 02:29N 30°04' W 093°36'4 7.6
2017-Oct-12 02:00N 30°04' W 093°31'4 7.6
2017-Oct-12 01:30N 30°04' W 093°27'4 7.5
2017-Oct-12 01:00N 30°04' W 093°23'3 5.4
2017-Oct-12 00:30N 30°05' W 093°20'3 5.1
2017-Oct-12 00:00N 30°05' W 093°17'1 1.3
2017-Oct-11 23:30N 30°04' W 093°16'0 0.0
2017-Oct-11 23:00N 30°04' W 093°16'0 0.0
2017-Oct-11 22:30N 30°04' W 093°16'1 1.8
2017-Oct-11 22:00N 30°04' W 093°16'3 6.5
2017-Oct-11 21:30N 30°01' W 093°14'4 7.2
2017-Oct-11 21:00N 29°58' W 093°11'126 6.0
2017-Oct-11 00:00N 29°32' W 090°49'3 6.4
2017-Oct-10 23:30N 29°33' W 090°45'2 4.8
2017-Oct-10 23:00N 29°34' W 090°43'0 0.2
2017-Oct-10 22:30N 29°34' W 090°43'2 3.3
2017-Oct-10 22:00N 29°33' W 090°41'  

Dump ship's entire track history